createdAt,value
2023-04-14T00:00:40.582Z,6.03
2023-04-14T00:04:41.115Z,4.8
2023-04-14T00:08:40.420Z,4.05
2023-04-14T00:12:40.582Z,4.87
2023-04-14T00:16:41.352Z,5.35
2023-04-14T00:20:40.268Z,7.95
2023-04-14T00:24:40.562Z,8.43
2023-04-14T00:28:40.566Z,5.45
2023-04-14T00:32:40.917Z,4.95
2023-04-14T00:36:40.607Z,7.12
2023-04-14T00:40:40.853Z,6.1
2023-04-14T00:44:40.399Z,5.9
2023-04-14T00:48:40.416Z,4.5
2023-04-14T00:52:40.516Z,4.97
2023-04-14T00:56:40.330Z,4.1
2023-04-14T01:00:40.428Z,5.07
2023-04-14T01:04:53.015Z,9.27
2023-04-14T01:08:40.617Z,11.8
2023-04-14T01:12:40.524Z,5.3
2023-04-14T01:16:40.721Z,6.47
2023-04-14T01:20:40.284Z,9.9
2023-04-14T01:24:41.017Z,6.78
2023-04-14T01:28:40.456Z,5.8
2023-04-14T01:32:40.567Z,5.87
2023-04-14T01:36:40.653Z,8.88
2023-04-14T01:40:40.531Z,4.75
2023-04-14T01:44:39.420Z,5.5
2023-04-14T01:48:40.488Z,4.43
2023-04-14T01:52:40.827Z,7.53
2023-04-14T01:56:40.501Z,5.45
2023-04-14T02:00:40.503Z,10.25
2023-04-14T02:04:40.682Z,8.4
2023-04-14T02:08:40.306Z,4.57
2023-04-14T02:12:40.534Z,9.85
2023-04-14T02:16:40.485Z,4.45
2023-04-14T02:20:40.812Z,4.72
2023-04-14T02:24:40.509Z,5.78
2023-04-14T02:28:40.470Z,6.37
2023-04-14T02:32:40.625Z,11.8
2023-04-14T02:36:40.311Z,5.68
2023-04-14T02:40:40.511Z,4.82
2023-04-14T02:44:40.431Z,5.9
2023-04-14T02:48:40.448Z,8.8
2023-04-14T02:52:40.783Z,7.78
2023-04-14T02:56:40.485Z,5.03
2023-04-14T03:00:40.582Z,5.85
2023-04-14T03:04:41.049Z,4.4
2023-04-14T03:08:40.417Z,12.18
2023-04-14T03:12:40.498Z,5.22
2023-04-14T03:16:40.429Z,8.45
2023-04-14T03:20:40.322Z,7.35
2023-04-14T03:24:40.651Z,9.82
2023-04-14T03:28:40.530Z,6.47
2023-04-14T03:32:40.468Z,8.5
2023-04-14T03:36:40.550Z,3.95
2023-04-14T03:40:40.603Z,9.05
2023-04-14T03:44:40.586Z,6.93
2023-04-14T03:48:41.096Z,9.45
2023-04-14T03:52:40.126Z,6.85
2023-04-14T03:56:39.549Z,4.97
2023-04-14T04:00:41.084Z,6.65
2023-04-14T04:04:41.080Z,9.38
2023-04-14T04:08:40.440Z,8.05
2023-04-14T04:12:40.536Z,10.48
2023-04-14T04:16:40.499Z,6.68
2023-04-14T04:20:40.552Z,7.35
2023-04-14T04:24:40.422Z,4.47
2023-04-14T04:28:40.469Z,7.55
2023-04-14T04:32:41.257Z,5.62
2023-04-14T04:36:41.182Z,10.82
2023-04-14T04:40:40.413Z,5.87
2023-04-14T04:44:40.558Z,5.53
2023-04-14T04:48:40.731Z,5.87
2023-04-14T04:52:40.945Z,3.83
2023-04-14T04:56:40.536Z,7.12
2023-04-14T05:00:40.762Z,4.8
2023-04-14T05:04:40.854Z,5.07
2023-04-14T05:08:40.432Z,6.57
2023-04-14T05:12:40.483Z,14.7
2023-04-14T05:16:40.412Z,12.68
2023-04-14T05:20:40.491Z,13.9
2023-04-14T05:24:40.484Z,10.2
2023-04-14T05:28:40.884Z,7.18
2023-04-14T05:32:41.284Z,10.23
2023-04-14T05:36:40.428Z,6.12
2023-04-14T05:40:40.468Z,7.12
2023-04-14T05:44:40.660Z,7.12
2023-04-14T05:48:41.061Z,5.28
2023-04-14T05:52:40.408Z,9.43
2023-04-14T05:56:40.301Z,6.97
2023-04-14T06:00:40.155Z,9
2023-04-14T06:04:40.415Z,9.38
2023-04-14T06:08:40.486Z,7
2023-04-14T06:12:40.240Z,7.12
2023-04-14T06:16:40.552Z,12.55
2023-04-14T06:20:40.492Z,5.6
2023-04-14T06:24:40.477Z,9.65
2023-04-14T06:28:43.306Z,11.38
2023-04-14T06:32:40.301Z,6.9
2023-04-14T06:36:40.353Z,11.95
2023-04-14T06:40:40.434Z,9.38
2023-04-14T06:44:40.776Z,10.07
2023-04-14T06:48:40.452Z,12.82
2023-04-14T06:52:40.756Z,6.9
2023-04-14T06:56:41.335Z,8.75
2023-04-14T07:00:41.035Z,10.07
2023-04-14T07:04:40.506Z,10.35
2023-04-14T07:08:40.501Z,13.15
2023-04-14T07:12:40.181Z,15.32
2023-04-14T07:16:40.497Z,13.75
2023-04-14T07:20:40.568Z,12.9
2023-04-14T07:24:40.496Z,11.07
2023-04-14T07:28:40.311Z,10.75
2023-04-14T07:32:39.998Z,12.23
2023-04-14T07:36:40.424Z,15.13
2023-04-14T07:40:40.575Z,14.63
2023-04-14T07:44:40.780Z,10.82
2023-04-14T07:48:40.415Z,8.4
2023-04-14T07:52:40.690Z,14.9
2023-04-14T07:56:41.210Z,11.77
2023-04-14T08:00:40.711Z,11.73
2023-04-14T08:04:40.664Z,12.82
2023-04-14T08:08:40.567Z,13.4
2023-04-14T08:12:40.233Z,10.63
2023-04-14T08:16:41.045Z,14.57
2023-04-14T08:20:40.369Z,11.45
2023-04-14T08:24:40.214Z,11.6
2023-04-14T08:28:39.261Z,12.8
2023-04-14T08:32:40.399Z,12.48
2023-04-14T08:36:40.357Z,15.25
2023-04-14T08:40:40.544Z,12.1
2023-04-14T08:44:40.460Z,16.83
2023-04-14T08:48:40.706Z,17.5
2023-04-14T08:52:40.088Z,27.02
2023-04-14T08:56:40.253Z,19.17
2023-04-14T09:00:40.713Z,14.65
2023-04-14T09:04:40.897Z,15.93
2023-04-14T09:08:40.417Z,15.77
2023-04-14T09:12:41.860Z,23.83
2023-04-14T09:16:41.280Z,18.5
2023-04-14T09:20:41.674Z,22.7
2023-04-14T09:24:40.550Z,17.83
2023-04-14T09:28:40.545Z,16.75
2023-04-14T09:32:40.171Z,16.25
2023-04-14T09:36:40.915Z,16.4
2023-04-14T09:40:40.727Z,16.25
2023-04-14T09:44:40.598Z,15.9
2023-04-14T09:48:40.606Z,15.82
2023-04-14T09:52:40.799Z,15.35
2023-04-14T09:56:40.471Z,19.65
2023-04-14T10:00:40.942Z,18.85
2023-04-14T10:04:40.575Z,22.7
2023-04-14T10:08:40.722Z,15.73
2023-04-14T10:12:40.246Z,17
2023-04-14T10:16:40.594Z,18.15
2023-04-14T10:20:40.928Z,15.7
2023-04-14T10:24:40.448Z,15.9
2023-04-14T10:28:40.669Z,16.77
2023-04-14T10:32:40.666Z,16.65
2023-04-14T10:36:40.429Z,14.3
2023-04-14T10:40:40.921Z,16.55
2023-04-14T10:44:40.788Z,14.07
2023-04-14T10:48:40.602Z,13.48
2023-04-14T10:52:40.560Z,17.67
2023-04-14T10:56:40.642Z,16.75
2023-04-14T11:00:40.866Z,14.02
2023-04-14T11:04:40.602Z,14.82
2023-04-14T11:08:40.500Z,15.2
2023-04-14T11:12:40.513Z,16.08
2023-04-14T11:16:44.687Z,14.38
2023-04-14T11:20:40.478Z,17.52
2023-04-14T11:24:40.462Z,14.27
2023-04-14T11:28:40.121Z,17.02
2023-04-14T11:32:40.322Z,14.45
2023-04-14T11:36:40.444Z,16.17
2023-04-14T11:40:40.502Z,18.92
2023-04-14T11:44:40.616Z,17.23
2023-04-14T11:48:40.561Z,18.58
2023-04-14T11:52:40.920Z,15.18
2023-04-14T11:56:40.287Z,14.63
2023-04-14T12:00:40.635Z,16.3
2023-04-14T12:04:41.138Z,15.45
2023-04-14T12:08:41.196Z,17.52
2023-04-14T12:12:40.884Z,16.83
2023-04-14T12:16:41.227Z,15.23
2023-04-14T12:20:40.673Z,16.85
2023-04-14T12:24:40.555Z,17.92
2023-04-14T12:28:40.415Z,19.02
2023-04-14T12:32:40.571Z,17.7
2023-04-14T12:36:49.474Z,18.85
2023-04-14T12:40:40.741Z,15.32
2023-04-14T12:44:40.427Z,16.17
2023-04-14T12:48:40.505Z,17.7
2023-04-14T12:52:40.556Z,19.12
2023-04-14T12:56:40.227Z,17.02
2023-04-14T13:00:40.594Z,18.92
2023-04-14T13:04:40.826Z,15.75
2023-04-14T13:08:40.573Z,15.8
2023-04-14T13:12:40.468Z,16.23
2023-04-14T13:16:40.672Z,15.6
2023-04-14T13:20:40.592Z,17.62
2023-04-14T13:24:40.502Z,15.48
2023-04-14T13:28:41.123Z,18.85
2023-04-14T13:32:41.229Z,14.87
2023-04-14T13:36:40.477Z,16.25
2023-04-14T13:40:40.863Z,16.48
2023-04-14T13:44:40.492Z,19.33
2023-04-14T13:48:39.571Z,15.25
2023-04-14T13:52:41.156Z,17.48
2023-04-14T13:56:40.299Z,16.55
2023-04-14T14:00:40.749Z,17.08
2023-04-14T14:04:41.014Z,15.82
2023-04-14T14:08:40.029Z,10.75
2023-04-14T14:12:40.680Z,14.35
2023-04-14T14:16:40.672Z,14.77
2023-04-14T14:20:40.337Z,15.5
2023-04-14T14:24:40.486Z,15.2
2023-04-14T14:28:40.426Z,13.85
2023-04-14T14:32:40.542Z,13.75
2023-04-14T14:36:40.489Z,14.87
2023-04-14T14:40:40.559Z,15.98
2023-04-14T14:44:40.346Z,25.02
2023-04-14T14:48:40.496Z,26.27
2023-04-14T14:52:40.541Z,15.68
2023-04-14T14:56:40.286Z,15.88
2023-04-14T15:00:40.889Z,19.95
2023-04-14T15:04:40.856Z,24.98
2023-04-14T15:08:40.413Z,19
2023-04-14T15:12:40.345Z,23.23
2023-04-14T15:16:40.334Z,21.25
2023-04-14T15:20:40.653Z,15.57
2023-04-14T15:24:40.791Z,13.9
2023-04-14T15:28:40.600Z,13.75
2023-04-14T15:32:41.056Z,15.45
2023-04-14T15:36:40.481Z,13.32
2023-04-14T15:40:40.548Z,14.7
2023-04-14T15:44:40.789Z,14.82
2023-04-14T15:48:40.521Z,17.7
2023-04-14T15:52:41.150Z,18.35
2023-04-14T15:56:40.517Z,18.9
2023-04-14T16:00:40.704Z,11.4
2023-04-14T16:04:41.119Z,16.25
2023-04-14T16:08:40.478Z,16.65
2023-04-14T16:12:40.834Z,18.8
2023-04-14T16:16:40.459Z,15.63
2023-04-14T16:20:40.709Z,19.23
2023-04-14T16:24:40.722Z,20.25
2023-04-14T16:28:40.002Z,17.67
2023-04-14T16:32:40.977Z,15.73
2023-04-14T16:36:40.443Z,17.98
2023-04-14T16:40:39.382Z,16.7
2023-04-14T16:44:40.525Z,16.58
2023-04-14T16:48:40.449Z,15.43
2023-04-14T16:52:40.509Z,15.45
2023-04-14T16:56:40.267Z,13.85
2023-04-14T17:00:40.792Z,15.45
2023-04-14T17:04:40.798Z,16.6
2023-04-14T17:08:40.499Z,15.18
2023-04-14T17:12:40.465Z,18.3
2023-04-14T17:16:40.306Z,16.3
2023-04-14T17:20:40.593Z,14.9
2023-04-14T17:24:40.613Z,25.42
2023-04-14T17:28:40.412Z,16.9
2023-04-14T17:32:40.843Z,21.5
2023-04-14T17:36:40.327Z,20.77
2023-04-14T17:40:40.747Z,23.6
2023-04-14T17:44:40.419Z,20.3
2023-04-14T17:48:40.971Z,20.7
2023-04-14T17:52:40.569Z,20.42
2023-04-14T17:56:40.352Z,20.92
2023-04-14T18:00:40.707Z,22.3
2023-04-14T18:04:40.806Z,22.37
2023-04-14T18:08:40.480Z,17.98
2023-04-14T18:12:40.590Z,17.87
2023-04-14T18:16:40.382Z,23.48
2023-04-14T18:20:40.594Z,17.15
2023-04-14T18:28:40.570Z,18.37
2023-04-14T18:32:40.474Z,15.4
2023-04-14T18:36:40.503Z,12.73
2023-04-14T18:40:40.602Z,17.85
2023-04-14T18:44:40.746Z,15.95
2023-04-14T18:48:40.493Z,14.35
2023-04-14T18:52:40.493Z,14.43
2023-04-14T18:56:39.620Z,15.35
2023-04-14T19:00:40.976Z,14.05
2023-04-14T19:04:40.567Z,12.93
2023-04-14T19:08:40.138Z,13.18
2023-04-14T19:12:40.310Z,12.23
2023-04-14T19:16:40.650Z,17.48
2023-04-14T19:20:40.361Z,16.67
2023-04-14T19:24:40.502Z,11.63
2023-04-14T19:28:40.630Z,12.8
2023-04-14T19:32:41.208Z,15.75
2023-04-14T19:36:40.418Z,14.18
2023-04-14T19:40:40.858Z,15.25
2023-04-14T19:44:40.367Z,12.27
2023-04-14T19:48:40.530Z,17.9
2023-04-14T19:52:40.516Z,12.25
2023-04-14T19:56:40.629Z,16.45
2023-04-14T20:00:40.985Z,12.43
2023-04-14T20:04:40.758Z,17.83
2023-04-14T20:08:40.389Z,17.85
2023-04-14T20:12:40.432Z,14.93
2023-04-14T20:16:40.424Z,15.02
2023-04-14T20:20:40.608Z,21.4
2023-04-14T20:24:40.986Z,13
2023-04-14T20:28:39.559Z,10.8
2023-04-14T20:32:40.881Z,14.18
2023-04-14T20:36:40.326Z,9.23
2023-04-14T20:40:40.853Z,11.73
2023-04-14T20:44:40.513Z,7.3
2023-04-14T20:48:39.672Z,10.18
2023-04-14T20:52:40.862Z,11.6
2023-04-14T20:56:40.590Z,9.55
2023-04-14T21:00:39.781Z,8.27
2023-04-14T21:04:40.457Z,11.32
2023-04-14T21:08:40.916Z,9.32
2023-04-14T21:12:41.760Z,9.98
2023-04-14T21:16:40.657Z,9.52
2023-04-14T21:20:40.478Z,13.02
2023-04-14T21:24:40.649Z,14.23
2023-04-14T21:28:40.461Z,13.4
2023-04-14T21:32:40.513Z,14.32
2023-04-14T21:36:40.515Z,12.6
2023-04-14T21:40:40.785Z,16.52
2023-04-14T21:44:40.377Z,13.68
2023-04-14T21:48:40.448Z,15.2
2023-04-14T21:52:40.468Z,17.05
2023-04-14T21:56:41.158Z,15.8
2023-04-14T22:00:40.323Z,20.02
2023-04-14T22:04:40.765Z,18.45
2023-04-14T22:08:40.079Z,23.12
2023-04-14T22:12:41.282Z,24.58
2023-04-14T22:16:40.633Z,20.42
2023-04-14T22:20:40.990Z,25.62
2023-04-14T22:24:40.517Z,29.2
2023-04-14T22:28:40.787Z,28.83
2023-04-14T22:32:40.564Z,33.03
2023-04-14T22:36:40.464Z,24.25
2023-04-14T22:40:40.644Z,33.4
2023-04-14T22:44:40.482Z,35.35
2023-04-14T22:48:40.497Z,34.1
2023-04-14T22:52:40.658Z,42.08
2023-04-14T22:56:40.563Z,48.58
2023-04-14T23:00:40.526Z,47.35
2023-04-14T23:04:40.566Z,50.42
2023-04-14T23:08:40.528Z,51.35
2023-04-14T23:12:40.796Z,54.85
2023-04-14T23:16:40.487Z,52.45
2023-04-14T23:20:41.018Z,54.5
2023-04-14T23:24:40.304Z,56.03
2023-04-14T23:28:40.459Z,53.7
2023-04-14T23:32:40.494Z,58.35
2023-04-14T23:36:40.270Z,59.3
2023-04-14T23:40:40.341Z,56.85
2023-04-14T23:44:40.455Z,72.43
2023-04-14T23:48:40.784Z,62.33
2023-04-14T23:52:40.881Z,62.88
2023-04-14T23:56:40.550Z,72.5
